sensor_id;sensor_type;location;lat;lon;timestamp;pressure;altitude;pressure_sealevel;temperature;humidity
61357;BME280;47227;46.752;23.576;2023-04-28T00:01:50;96726.03;;;3.17;55.81
61357;BME280;47227;46.752;23.576;2023-04-28T00:04:22;96727.78;;;3.10;55.76
61357;BME280;47227;46.752;23.576;2023-04-28T00:06:51;96729.08;;;3.03;56.46
61357;BME280;47227;46.752;23.576;2023-04-28T00:09:19;96728.96;;;2.97;56.33
61357;BME280;47227;46.752;23.576;2023-04-28T00:11:48;96724.52;;;2.90;56.63
61357;BME280;47227;46.752;23.576;2023-04-28T00:14:15;96726.75;;;2.84;57.72
61357;BME280;47227;46.752;23.576;2023-04-28T00:16:45;96729.73;;;2.79;57.92
61357;BME280;47227;46.752;23.576;2023-04-28T00:19:13;96728.71;;;2.72;57.21
61357;BME280;47227;46.752;23.576;2023-04-28T00:21:41;96732.17;;;2.68;57.32
61357;BME280;47227;46.752;23.576;2023-04-28T00:24:10;96732.42;;;2.62;57.62
61357;BME280;47227;46.752;23.576;2023-04-28T00:26:39;96732.95;;;2.56;57.67
61357;BME280;47227;46.752;23.576;2023-04-28T00:29:08;96738.01;;;2.51;58.29
61357;BME280;47227;46.752;23.576;2023-04-28T00:31:37;96734.27;;;2.48;58.42
61357;BME280;47227;46.752;23.576;2023-04-28T00:34:06;96733.79;;;2.43;58.11
61357;BME280;47227;46.752;23.576;2023-04-28T00:36:35;96736.73;;;2.39;58.25
61357;BME280;47227;46.752;23.576;2023-04-28T00:39:03;96735.27;;;2.34;58.40
61357;BME280;47227;46.752;23.576;2023-04-28T00:41:33;96736.90;;;2.28;58.21
61357;BME280;47227;46.752;23.576;2023-04-28T00:44:03;96735.56;;;2.22;58.61
61357;BME280;47227;46.752;23.576;2023-04-28T00:46:32;96737.29;;;2.16;58.54
61357;BME280;47227;46.752;23.576;2023-04-28T00:49:03;96738.95;;;2.11;59.31
61357;BME280;47227;46.752;23.576;2023-04-28T00:51:31;96742.02;;;2.06;59.29
61357;BME280;47227;46.752;23.576;2023-04-28T00:54:05;96743.31;;;2.01;59.16
61357;BME280;47227;46.752;23.576;2023-04-28T00:56:36;96742.66;;;1.96;59.42
61357;BME280;47227;46.752;23.576;2023-04-28T00:59:09;96745.47;;;1.91;59.91
61357;BME280;47227;46.752;23.576;2023-04-28T01:01:38;96750.99;;;1.87;60.07
61357;BME280;47227;46.752;23.576;2023-04-28T01:04:06;96751.82;;;1.83;60.29
61357;BME280;47227;46.752;23.576;2023-04-28T01:06:37;96756.19;;;1.79;60.03
61357;BME280;47227;46.752;23.576;2023-04-28T01:09:06;96759.98;;;1.77;60.16
61357;BME280;47227;46.752;23.576;2023-04-28T01:11:34;96760.49;;;1.73;60.23
61357;BME280;47227;46.752;23.576;2023-04-28T01:14:12;96764.05;;;1.71;60.76
61357;BME280;47227;46.752;23.576;2023-04-28T01:16:42;96765.75;;;1.68;60.57
61357;BME280;47227;46.752;23.576;2023-04-28T01:19:19;96771.78;;;1.67;60.95
61357;BME280;47227;46.752;23.576;2023-04-28T01:21:50;96775.33;;;1.64;60.71
61357;BME280;47227;46.752;23.576;2023-04-28T01:24:20;96774.58;;;1.62;60.98
61357;BME280;47227;46.752;23.576;2023-04-28T01:26:49;96776.45;;;1.59;60.70
61357;BME280;47227;46.752;23.576;2023-04-28T01:29:22;96779.16;;;1.57;60.66
61357;BME280;47227;46.752;23.576;2023-04-28T01:31:51;96781.98;;;1.53;60.88
61357;BME280;47227;46.752;23.576;2023-04-28T01:34:19;96781.81;;;1.50;60.82
61357;BME280;47227;46.752;23.576;2023-04-28T01:36:47;96781.84;;;1.47;60.86
61357;BME280;47227;46.752;23.576;2023-04-28T01:39:15;96779.54;;;1.44;61.12
61357;BME280;47227;46.752;23.576;2023-04-28T01:41:43;96780.66;;;1.42;61.21
61357;BME280;47227;46.752;23.576;2023-04-28T01:44:13;96779.50;;;1.39;61.37
61357;BME280;47227;46.752;23.576;2023-04-28T01:46:42;96778.78;;;1.36;61.31
61357;BME280;47227;46.752;23.576;2023-04-28T01:49:10;96777.23;;;1.33;61.05
61357;BME280;47227;46.752;23.576;2023-04-28T01:51:38;96775.55;;;1.29;61.20
61357;BME280;47227;46.752;23.576;2023-04-28T01:54:07;96774.86;;;1.28;61.64
61357;BME280;47227;46.752;23.576;2023-04-28T01:56:35;96775.39;;;1.26;61.31
61357;BME280;47227;46.752;23.576;2023-04-28T01:59:03;96777.98;;;1.24;61.20
61357;BME280;47227;46.752;23.576;2023-04-28T02:01:32;96778.38;;;1.24;61.62
61357;BME280;47227;46.752;23.576;2023-04-28T02:04:00;96775.92;;;1.25;61.67
61357;BME280;47227;46.752;23.576;2023-04-28T02:06:30;96775.77;;;1.24;61.59
61357;BME280;47227;46.752;23.576;2023-04-28T02:08:59;96775.79;;;1.24;61.56
61357;BME280;47227;46.752;23.576;2023-04-28T02:11:27;96777.69;;;1.26;61.86
61357;BME280;47227;46.752;23.576;2023-04-28T02:13:57;96774.55;;;1.28;61.55
61357;BME280;47227;46.752;23.576;2023-04-28T02:16:25;96777.69;;;1.29;61.55
61357;BME280;47227;46.752;23.576;2023-04-28T02:18:53;96780.27;;;1.27;61.35
61357;BME280;47227;46.752;23.576;2023-04-28T02:21:21;96778.84;;;1.26;61.26
61357;BME280;47227;46.752;23.576;2023-04-28T02:23:50;96783.30;;;1.26;61.51
61357;BME280;47227;46.752;23.576;2023-04-28T02:26:18;96782.45;;;1.25;61.08
61357;BME280;47227;46.752;23.576;2023-04-28T02:28:46;96783.52;;;1.23;61.09
61357;BME280;47227;46.752;23.576;2023-04-28T02:31:16;96781.79;;;1.22;61.20
61357;BME280;47227;46.752;23.576;2023-04-28T02:33:45;96782.80;;;1.20;61.20
61357;BME280;47227;46.752;23.576;2023-04-28T02:36:13;96784.21;;;1.20;61.31
61357;BME280;47227;46.752;23.576;2023-04-28T02:38:41;96784.98;;;1.19;61.50
61357;BME280;47227;46.752;23.576;2023-04-28T02:41:11;96788.70;;;1.18;61.24
61357;BME280;47227;46.752;23.576;2023-04-28T02:43:41;96786.69;;;1.17;61.18
61357;BME280;47227;46.752;23.576;2023-04-28T02:46:09;96787.49;;;1.15;61.25
61357;BME280;47227;46.752;23.576;2023-04-28T02:48:38;96790.80;;;1.15;61.34
61357;BME280;47227;46.752;23.576;2023-04-28T02:51:08;96788.51;;;1.16;61.32
61357;BME280;47227;46.752;23.576;2023-04-28T02:53:35;96787.23;;;1.16;61.18
61357;BME280;47227;46.752;23.576;2023-04-28T02:56:04;96790.50;;;1.16;61.20
61357;BME280;47227;46.752;23.576;2023-04-28T02:58:33;96790.61;;;1.15;61.15
61357;BME280;47227;46.752;23.576;2023-04-28T03:01:01;96792.00;;;1.14;61.19
61357;BME280;47227;46.752;23.576;2023-04-28T03:03:29;96796.00;;;1.10;61.12
61357;BME280;47227;46.752;23.576;2023-04-28T03:05:57;96800.88;;;1.06;60.96
61357;BME280;47227;46.752;23.576;2023-04-28T03:08:31;96800.77;;;1.05;61.44
61357;BME280;47227;46.752;23.576;2023-04-28T03:10:59;96800.98;;;1.04;61.34
61357;BME280;47227;46.752;23.576;2023-04-28T03:13:27;96803.65;;;1.04;61.37
61357;BME280;47227;46.752;23.576;2023-04-28T03:15:57;96805.09;;;1.04;61.49
61357;BME280;47227;46.752;23.576;2023-04-28T03:18:25;96809.31;;;1.05;61.62
61357;BME280;47227;46.752;23.576;2023-04-28T03:20:55;96810.38;;;1.06;61.65
61357;BME280;47227;46.752;23.576;2023-04-28T03:23:25;96810.52;;;1.06;61.53
61357;BME280;47227;46.752;23.576;2023-04-28T03:25:53;96813.47;;;1.06;61.47
61357;BME280;47227;46.752;23.576;2023-04-28T03:28:25;96813.45;;;1.08;61.70
61357;BME280;47227;46.752;23.576;2023-04-28T03:30:53;96818.05;;;1.10;61.83
61357;BME280;47227;46.752;23.576;2023-04-28T03:33:21;96817.56;;;1.12;61.78
61357;BME280;47227;46.752;23.576;2023-04-28T03:35:49;96821.19;;;1.12;61.60
61357;BME280;47227;46.752;23.576;2023-04-28T03:38:17;96818.61;;;1.13;61.75
61357;BME280;47227;46.752;23.576;2023-04-28T03:40:46;96823.28;;;1.16;61.96
61357;BME280;47227;46.752;23.576;2023-04-28T03:43:34;96824.96;;;1.18;62.05
61357;BME280;47227;46.752;23.576;2023-04-28T03:46:18;96826.95;;;1.20;62.21
61357;BME280;47227;46.752;23.576;2023-04-28T03:48:47;96829.08;;;1.22;62.05
61357;BME280;47227;46.752;23.576;2023-04-28T03:51:16;96825.54;;;1.25;62.30
61357;BME280;47227;46.752;23.576;2023-04-28T03:53:44;96830.09;;;1.27;62.33
61357;BME280;47227;46.752;23.576;2023-04-28T03:56:12;96828.23;;;1.30;61.96
61357;BME280;47227;46.752;23.576;2023-04-28T03:58:41;96833.27;;;1.34;62.19
61357;BME280;47227;46.752;23.576;2023-04-28T04:01:09;96831.30;;;1.38;62.20
61357;BME280;47227;46.752;23.576;2023-04-28T04:03:37;96833.81;;;1.41;62.34
61357;BME280;47227;46.752;23.576;2023-04-28T04:06:05;96837.70;;;1.45;62.19
61357;BME280;47227;46.752;23.576;2023-04-28T04:08:34;96840.29;;;1.48;62.01
61357;BME280;47227;46.752;23.576;2023-04-28T04:11:02;96842.20;;;1.51;62.16
61357;BME280;47227;46.752;23.576;2023-04-28T04:13:30;96842.80;;;1.53;61.98
61357;BME280;47227;46.752;23.576;2023-04-28T04:15:58;96844.16;;;1.57;62.01
61357;BME280;47227;46.752;23.576;2023-04-28T04:18:27;96845.09;;;1.60;61.98
61357;BME280;47227;46.752;23.576;2023-04-28T04:21:15;96848.55;;;1.63;61.84
61357;BME280;47227;46.752;23.576;2023-04-28T04:23:44;96849.39;;;1.66;62.06
61357;BME280;47227;46.752;23.576;2023-04-28T04:26:12;96852.44;;;1.68;62.06
61357;BME280;47227;46.752;23.576;2023-04-28T04:28:40;96851.89;;;1.71;61.98
61357;BME280;47227;46.752;23.576;2023-04-28T04:31:09;96851.77;;;1.74;62.09
61357;BME280;47227;46.752;23.576;2023-04-28T04:39:13;96856.08;;;1.80;62.17
61357;BME280;47227;46.752;23.576;2023-04-28T04:41:41;96860.04;;;1.82;62.00
61357;BME280;47227;46.752;23.576;2023-04-28T04:44:24;96863.34;;;1.84;62.10
61357;BME280;47227;46.752;23.576;2023-04-28T04:46:56;96865.45;;;1.87;62.16
61357;BME280;47227;46.752;23.576;2023-04-28T04:49:29;96865.09;;;1.90;62.27
61357;BME280;47227;46.752;23.576;2023-04-28T04:51:59;96865.86;;;1.94;62.22
61357;BME280;47227;46.752;23.576;2023-04-28T04:54:30;96866.36;;;1.99;62.34
61357;BME280;47227;46.752;23.576;2023-04-28T04:57:25;96865.67;;;2.06;62.22
61357;BME280;47227;46.752;23.576;2023-04-28T05:00:09;96870.81;;;2.15;62.13
61357;BME280;47227;46.752;23.576;2023-04-28T05:02:38;96870.16;;;2.24;62.02
61357;BME280;47227;46.752;23.576;2023-04-28T05:05:21;96868.94;;;2.34;61.97
61357;BME280;47227;46.752;23.576;2023-04-28T05:08:00;96867.80;;;2.46;61.68
61357;BME280;47227;46.752;23.576;2023-04-28T05:29:08;96885.54;;;3.21;60.47
61357;BME280;47227;46.752;23.576;2023-04-28T06:02:22;96892.42;;;4.58;57.44
61357;BME280;47227;46.752;23.576;2023-04-28T06:37:19;96898.18;;;5.91;54.25
61357;BME280;47227;46.752;23.576;2023-04-28T08:08:42;96889.21;;;8.75;35.89
61357;BME280;47227;46.752;23.576;2023-04-28T08:11:36;96883.60;;;8.97;37.66
61357;BME280;47227;46.752;23.576;2023-04-28T08:14:36;96883.86;;;9.07;35.12
61357;BME280;47227;46.752;23.576;2023-04-28T08:17:53;96886.74;;;9.09;35.67
61357;BME280;47227;46.752;23.576;2023-04-28T08:22:24;96882.75;;;9.17;36.11
61357;BME280;47227;46.752;23.576;2023-04-28T08:25:38;96880.34;;;9.18;35.08
61357;BME280;47227;46.752;23.576;2023-04-28T08:28:10;96883.19;;;9.07;34.82
61357;BME280;47227;46.752;23.576;2023-04-28T08:30:58;96882.23;;;9.15;35.87
61357;BME280;47227;46.752;23.576;2023-04-28T08:33:56;96887.41;;;9.25;36.12
61357;BME280;47227;46.752;23.576;2023-04-28T08:37:01;96884.96;;;9.38;36.64
61357;BME280;47227;46.752;23.576;2023-04-28T08:39:58;96881.89;;;9.30;35.78
61357;BME280;47227;46.752;23.576;2023-04-28T08:43:51;96887.48;;;9.24;35.80
61357;BME280;47227;46.752;23.576;2023-04-28T08:47:52;96885.16;;;9.29;36.51
61357;BME280;47227;46.752;23.576;2023-04-28T08:51:43;96888.25;;;9.46;35.55
61357;BME280;47227;46.752;23.576;2023-04-28T08:54:35;96872.47;;;9.52;34.73
61357;BME280;47227;46.752;23.576;2023-04-28T08:57:02;96875.53;;;9.66;34.70
61357;BME280;47227;46.752;23.576;2023-04-28T08:59:31;96873.11;;;9.75;34.39
61357;BME280;47227;46.752;23.576;2023-04-28T09:05:43;96865.92;;;9.75;33.44
61357;BME280;47227;46.752;23.576;2023-04-28T09:08:24;96863.81;;;10.04;35.17
61357;BME280;47227;46.752;23.576;2023-04-28T09:11:57;96867.58;;;10.21;33.21
61357;BME280;47227;46.752;23.576;2023-04-28T09:14:29;96867.15;;;10.44;34.43
61357;BME280;47227;46.752;23.576;2023-04-28T09:17:24;96859.16;;;10.65;33.26
61357;BME280;47227;46.752;23.576;2023-04-28T09:19:52;96853.57;;;10.80;33.23
61357;BME280;47227;46.752;23.576;2023-04-28T09:22:34;96853.37;;;10.89;32.80
61357;BME280;47227;46.752;23.576;2023-04-28T09:25:32;96848.55;;;10.75;32.79
61357;BME280;47227;46.752;23.576;2023-04-28T09:28:21;96851.15;;;10.91;33.35
61357;BME280;47227;46.752;23.576;2023-04-28T09:31:25;96847.88;;;11.10;33.03
61357;BME280;47227;46.752;23.576;2023-04-28T09:34:22;96846.67;;;11.08;33.05
61357;BME280;47227;46.752;23.576;2023-04-28T09:37:21;96840.64;;;11.30;33.46
61357;BME280;47227;46.752;23.576;2023-04-28T09:39:50;96837.01;;;11.29;31.72
61357;BME280;47227;46.752;23.576;2023-04-28T09:42:30;96835.39;;;11.36;32.16
61357;BME280;47227;46.752;23.576;2023-04-28T09:45:10;96835.68;;;11.32;32.04
61357;BME280;47227;46.752;23.576;2023-04-28T09:47:40;96834.61;;;11.39;32.15
61357;BME280;47227;46.752;23.576;2023-04-28T09:50:09;96835.98;;;11.47;32.15
61357;BME280;47227;46.752;23.576;2023-04-28T09:52:55;96841.04;;;11.54;31.81
61357;BME280;47227;46.752;23.576;2023-04-28T09:55:31;96828.02;;;11.14;30.41
61357;BME280;47227;46.752;23.576;2023-04-28T09:58:12;96821.39;;;11.06;31.13
61357;BME280;47227;46.752;23.576;2023-04-28T10:00:55;96818.23;;;11.15;30.82
61357;BME280;47227;46.752;23.576;2023-04-28T10:03:30;96815.02;;;11.37;31.61
61357;BME280;47227;46.752;23.576;2023-04-28T10:05:58;96810.55;;;11.74;32.24
61357;BME280;47227;46.752;23.576;2023-04-28T10:08:31;96812.67;;;11.97;31.28
61357;BME280;47227;46.752;23.576;2023-04-28T10:10:58;96814.45;;;12.03;31.00
61357;BME280;47227;46.752;23.576;2023-04-28T10:13:25;96815.48;;;11.94;30.10
61357;BME280;47227;46.752;23.576;2023-04-28T10:15:52;96808.23;;;12.03;30.42
61357;BME280;47227;46.752;23.576;2023-04-28T10:18:22;96815.45;;;11.99;30.93
61357;BME280;47227;46.752;23.576;2023-04-28T10:20:58;96809.06;;;12.26;31.67
61357;BME280;47227;46.752;23.576;2023-04-28T10:23:42;96803.28;;;12.23;30.14
61357;BME280;47227;46.752;23.576;2023-04-28T10:26:14;96797.51;;;12.20;30.26
61357;BME280;47227;46.752;23.576;2023-04-28T10:28:47;96790.98;;;12.36;30.42
61357;BME280;47227;46.752;23.576;2023-04-28T10:31:16;96794.95;;;12.26;29.69
61357;BME280;47227;46.752;23.576;2023-04-28T10:33:43;96789.89;;;12.57;30.98
61357;BME280;47227;46.752;23.576;2023-04-28T10:36:10;96779.66;;;12.91;30.80
61357;BME280;47227;46.752;23.576;2023-04-28T10:41:45;96783.80;;;13.30;29.84
61357;BME280;47227;46.752;23.576;2023-04-28T10:47:11;96773.45;;;13.88;30.36
61357;BME280;47227;46.752;23.576;2023-04-28T10:52:47;96771.55;;;14.50;28.94
61357;BME280;47227;46.752;23.576;2023-04-28T10:55:33;96762.66;;;14.63;27.76
61357;BME280;47227;46.752;23.576;2023-04-28T11:01:26;96759.17;;;14.34;27.78
61357;BME280;47227;46.752;23.576;2023-04-28T11:04:04;96753.98;;;14.57;27.75
61357;BME280;47227;46.752;23.576;2023-04-28T11:06:43;96754.58;;;14.79;27.41
61357;BME280;47227;46.752;23.576;2023-04-28T11:12:17;96745.98;;;15.07;25.66
61357;BME280;47227;46.752;23.576;2023-04-28T11:14:44;96744.80;;;15.49;26.08
61357;BME280;47227;46.752;23.576;2023-04-28T11:17:13;96743.35;;;15.63;26.28
61357;BME280;47227;46.752;23.576;2023-04-28T11:19:44;96743.27;;;15.56;25.72
61357;BME280;47227;46.752;23.576;2023-04-28T11:22:17;96744.40;;;15.73;25.79
61357;BME280;47227;46.752;23.576;2023-04-28T11:24:59;96745.02;;;15.73;26.11
61357;BME280;47227;46.752;23.576;2023-04-28T11:27:29;96747.52;;;16.34;26.36
61357;BME280;47227;46.752;23.576;2023-04-28T11:29:56;96741.89;;;16.71;25.77
61357;BME280;47227;46.752;23.576;2023-04-28T11:32:29;96743.93;;;16.86;25.06
61357;BME280;47227;46.752;23.576;2023-04-28T11:34:56;96744.81;;;17.03;25.36
61357;BME280;47227;46.752;23.576;2023-04-28T11:37:23;96737.36;;;17.50;25.05
61357;BME280;47227;46.752;23.576;2023-04-28T11:39:51;96733.98;;;17.32;23.92
61357;BME280;47227;46.752;23.576;2023-04-28T11:42:18;96736.27;;;16.98;24.42
61357;BME280;47227;46.752;23.576;2023-04-28T11:44:49;96738.34;;;17.52;24.87
61357;BME280;47227;46.752;23.576;2023-04-28T11:47:37;96736.38;;;17.42;24.12
61357;BME280;47227;46.752;23.576;2023-04-28T11:50:04;96730.46;;;17.01;23.74
61357;BME280;47227;46.752;23.576;2023-04-28T11:52:32;96730.16;;;16.83;23.93
61357;BME280;47227;46.752;23.576;2023-04-28T11:54:59;96729.86;;;16.71;23.56
61357;BME280;47227;46.752;23.576;2023-04-28T11:57:27;96727.92;;;16.50;23.81
61357;BME280;47227;46.752;23.576;2023-04-28T12:00:11;96720.05;;;16.57;24.14
61357;BME280;47227;46.752;23.576;2023-04-28T12:02:39;96723.21;;;17.35;24.46
61357;BME280;47227;46.752;23.576;2023-04-28T12:05:07;96719.40;;;17.53;23.62
61357;BME280;47227;46.752;23.576;2023-04-28T12:07:40;96713.30;;;17.70;22.82
61357;BME280;47227;46.752;23.576;2023-04-28T12:10:13;96712.95;;;17.58;23.12
61357;BME280;47227;46.752;23.576;2023-04-28T12:12:42;96718.45;;;17.38;22.74
61357;BME280;47227;46.752;23.576;2023-04-28T12:15:19;96712.55;;;17.86;22.78
61357;BME280;47227;46.752;23.576;2023-04-28T12:17:48;96706.64;;;18.27;22.59
61357;BME280;47227;46.752;23.576;2023-04-28T12:20:32;96699.98;;;18.92;22.22
61357;BME280;47227;46.752;23.576;2023-04-28T12:23:00;96697.98;;;19.74;22.22
61357;BME280;47227;46.752;23.576;2023-04-28T12:25:28;96693.23;;;19.56;21.65
61357;BME280;47227;46.752;23.576;2023-04-28T12:28:00;96689.62;;;19.13;21.93
61357;BME280;47227;46.752;23.576;2023-04-28T12:30:31;96687.17;;;18.78;22.39
61357;BME280;47227;46.752;23.576;2023-04-28T12:32:58;96678.64;;;18.74;22.39
61357;BME280;47227;46.752;23.576;2023-04-28T12:35:26;96677.16;;;18.67;22.54
61357;BME280;47227;46.752;23.576;2023-04-28T12:37:54;96672.66;;;18.46;22.79
61357;BME280;47227;46.752;23.576;2023-04-28T12:40:23;96669.98;;;18.73;23.63
61357;BME280;47227;46.752;23.576;2023-04-28T12:42:50;96665.57;;;18.81;22.94
61357;BME280;47227;46.752;23.576;2023-04-28T12:45:20;96666.98;;;18.72;23.03
61357;BME280;47227;46.752;23.576;2023-04-28T12:47:46;96665.75;;;18.58;22.94
61357;BME280;47227;46.752;23.576;2023-04-28T12:50:13;96661.42;;;18.41;23.16
61357;BME280;47227;46.752;23.576;2023-04-28T12:52:40;96658.17;;;18.45;23.27
61357;BME280;47227;46.752;23.576;2023-04-28T12:55:21;96654.65;;;18.88;22.98
61357;BME280;47227;46.752;23.576;2023-04-28T12:58:01;96657.06;;;19.59;22.51
61357;BME280;47227;46.752;23.576;2023-04-28T13:00:35;96649.95;;;19.63;21.78
61357;BME280;47227;46.752;23.576;2023-04-28T13:03:07;96641.44;;;19.54;22.09
61357;BME280;47227;46.752;23.576;2023-04-28T13:05:41;96635.98;;;19.32;22.22
61357;BME280;47227;46.752;23.576;2023-04-28T13:08:08;96630.90;;;19.57;21.89
61357;BME280;47227;46.752;23.576;2023-04-28T13:10:42;96626.59;;;19.34;21.77
61357;BME280;47227;46.752;23.576;2023-04-28T13:13:18;96623.36;;;19.59;21.69
61357;BME280;47227;46.752;23.576;2023-04-28T13:15:47;96622.47;;;19.30;22.17
61357;BME280;47227;46.752;23.576;2023-04-28T13:18:14;96624.94;;;19.34;22.20
61357;BME280;47227;46.752;23.576;2023-04-28T13:21:26;96620.00;;;19.59;22.10
61357;BME280;47227;46.752;23.576;2023-04-28T13:28:05;96608.52;;;20.41;22.07
61357;BME280;47227;46.752;23.576;2023-04-28T13:30:37;96604.77;;;20.99;21.38
61357;BME280;47227;46.752;23.576;2023-04-28T13:33:08;96604.58;;;20.65;21.12
61357;BME280;47227;46.752;23.576;2023-04-28T13:35:35;96603.94;;;20.18;21.50
61357;BME280;47227;46.752;23.576;2023-04-28T13:38:07;96602.05;;;20.00;21.54
61357;BME280;47227;46.752;23.576;2023-04-28T13:40:34;96595.20;;;20.54;20.97
61357;BME280;47227;46.752;23.576;2023-04-28T13:43:01;96589.98;;;20.53;20.95
61357;BME280;47227;46.752;23.576;2023-04-28T13:45:36;96589.50;;;19.75;21.88
61357;BME280;47227;46.752;23.576;2023-04-28T13:48:05;96588.18;;;19.97;22.03
61357;BME280;47227;46.752;23.576;2023-04-28T13:50:35;96586.23;;;20.14;21.50
61357;BME280;47227;46.752;23.576;2023-04-28T13:53:05;96581.12;;;19.73;21.93
61357;BME280;47227;46.752;23.576;2023-04-28T13:55:32;96576.46;;;20.79;20.99
61357;BME280;47227;46.752;23.576;2023-04-28T13:58:01;96576.87;;;20.76;20.76
61357;BME280;47227;46.752;23.576;2023-04-28T14:00:30;96575.88;;;20.43;21.08
61357;BME280;47227;46.752;23.576;2023-04-28T14:03:00;96576.02;;;20.91;20.90
61357;BME280;47227;46.752;23.576;2023-04-28T14:05:28;96577.11;;;21.28;20.14
61357;BME280;47227;46.752;23.576;2023-04-28T14:08:05;96571.50;;;21.06;19.92
61357;BME280;47227;46.752;23.576;2023-04-28T14:10:34;96567.44;;;21.58;19.65
61357;BME280;47227;46.752;23.576;2023-04-28T14:13:00;96558.25;;;22.25;19.26
61357;BME280;47227;46.752;23.576;2023-04-28T14:15:27;96552.70;;;22.46;19.20
61357;BME280;47227;46.752;23.576;2023-04-28T14:17:54;96553.21;;;22.40;19.28
61357;BME280;47227;46.752;23.576;2023-04-28T14:20:25;96552.27;;;21.79;19.73
61357;BME280;47227;46.752;23.576;2023-04-28T14:22:55;96551.48;;;21.15;20.48
61357;BME280;47227;46.752;23.576;2023-04-28T14:25:22;96543.34;;;21.91;19.71
61357;BME280;47227;46.752;23.576;2023-04-28T14:27:50;96540.16;;;21.96;19.45
61357;BME280;47227;46.752;23.576;2023-04-28T14:30:21;96543.31;;;22.05;19.27
61357;BME280;47227;46.752;23.576;2023-04-28T14:32:51;96542.12;;;21.74;19.47
61357;BME280;47227;46.752;23.576;2023-04-28T14:35:19;96534.30;;;21.23;19.77
61357;BME280;47227;46.752;23.576;2023-04-28T14:37:46;96535.72;;;21.39;19.57
61357;BME280;47227;46.752;23.576;2023-04-28T14:40:13;96535.10;;;22.40;19.50
61357;BME280;47227;46.752;23.576;2023-04-28T14:42:42;96532.46;;;23.38;18.62
61357;BME280;47227;46.752;23.576;2023-04-28T14:45:09;96534.05;;;23.47;18.42
61357;BME280;47227;46.752;23.576;2023-04-28T14:47:40;96531.90;;;24.43;18.08
61357;BME280;47227;46.752;23.576;2023-04-28T14:50:07;96528.96;;;24.82;16.72
61357;BME280;47227;46.752;23.576;2023-04-28T14:52:34;96527.30;;;24.23;17.27
61357;BME280;47227;46.752;23.576;2023-04-28T14:55:01;96523.67;;;23.21;17.95
61357;BME280;47227;46.752;23.576;2023-04-28T20:25:29;96488.39;;;6.54;47.63
61357;BME280;47227;46.752;23.576;2023-04-28T20:42:40;96494.86;;;6.21;47.31
61357;BME280;47227;46.752;23.576;2023-04-28T20:45:07;96496.69;;;6.18;47.01
61357;BME280;47227;46.752;23.576;2023-04-28T20:47:35;96496.55;;;6.15;47.05
61357;BME280;47227;46.752;23.576;2023-04-28T20:50:02;96497.25;;;6.12;47.25
61357;BME280;47227;46.752;23.576;2023-04-28T20:52:28;96499.68;;;6.10;47.75
61357;BME280;47227;46.752;23.576;2023-04-28T20:54:55;96496.08;;;6.06;48.08
61357;BME280;47227;46.752;23.576;2023-04-28T20:57:23;96503.40;;;6.02;47.98
61357;BME280;47227;46.752;23.576;2023-04-28T20:59:49;96501.10;;;5.97;48.34
61357;BME280;47227;46.752;23.576;2023-04-28T21:02:17;96497.64;;;5.92;48.65
61357;BME280;47227;46.752;23.576;2023-04-28T21:04:43;96495.81;;;5.87;48.73
61357;BME280;47227;46.752;23.576;2023-04-28T21:07:10;96500.45;;;5.84;48.70
61357;BME280;47227;46.752;23.576;2023-04-28T21:09:37;96497.64;;;5.79;48.68
61357;BME280;47227;46.752;23.576;2023-04-28T21:12:03;96496.02;;;5.75;49.24
61357;BME280;47227;46.752;23.576;2023-04-28T21:14:33;96494.53;;;5.70;49.93
61357;BME280;47227;46.752;23.576;2023-04-28T21:17:02;96495.42;;;5.68;49.51
61357;BME280;47227;46.752;23.576;2023-04-28T21:19:30;96497.94;;;5.64;50.10
61357;BME280;47227;46.752;23.576;2023-04-28T21:21:57;96498.39;;;5.61;49.86
61357;BME280;47227;46.752;23.576;2023-04-28T21:24:24;96498.50;;;5.56;50.45
61357;BME280;47227;46.752;23.576;2023-04-28T21:26:50;96497.73;;;5.51;50.68
61357;BME280;47227;46.752;23.576;2023-04-28T21:29:17;96496.45;;;5.45;51.09
61357;BME280;47227;46.752;23.576;2023-04-28T21:31:44;96491.16;;;5.39;51.48
61357;BME280;47227;46.752;23.576;2023-04-28T21:34:11;96492.70;;;5.35;51.47
61357;BME280;47227;46.752;23.576;2023-04-28T21:36:37;96490.55;;;5.32;51.41
61357;BME280;47227;46.752;23.576;2023-04-28T21:39:04;96488.62;;;5.28;51.66
61357;BME280;47227;46.752;23.576;2023-04-28T21:41:31;96488.84;;;5.24;51.85
61357;BME280;47227;46.752;23.576;2023-04-28T21:46:42;96479.11;;;5.16;52.00
61357;BME280;47227;46.752;23.576;2023-04-28T21:49:09;96475.01;;;5.13;51.63
61357;BME280;47227;46.752;23.576;2023-04-28T21:51:35;96473.55;;;5.10;51.84
61357;BME280;47227;46.752;23.576;2023-04-28T21:54:03;96473.11;;;5.07;52.10
61357;BME280;47227;46.752;23.576;2023-04-28T21:56:29;96467.73;;;5.03;52.21
61357;BME280;47227;46.752;23.576;2023-04-28T21:58:56;96466.88;;;5.01;52.18
61357;BME280;47227;46.752;23.576;2023-04-28T22:01:22;96463.63;;;4.98;52.13
61357;BME280;47227;46.752;23.576;2023-04-28T22:03:49;96461.65;;;4.94;52.50
61357;BME280;47227;46.752;23.576;2023-04-28T22:06:16;96459.19;;;4.91;52.55
61357;BME280;47227;46.752;23.576;2023-04-28T22:08:43;96457.16;;;4.87;54.50
61357;BME280;47227;46.752;23.576;2023-04-28T22:11:09;96453.21;;;4.82;56.30
61357;BME280;47227;46.752;23.576;2023-04-28T22:13:37;96445.00;;;4.78;54.33
61357;BME280;47227;46.752;23.576;2023-04-28T22:16:04;96447.61;;;4.73;53.51
61357;BME280;47227;46.752;23.576;2023-04-28T22:18:34;96448.48;;;4.68;53.80
61357;BME280;47227;46.752;23.576;2023-04-28T22:21:01;96445.06;;;4.62;55.37
61357;BME280;47227;46.752;23.576;2023-04-28T22:23:28;96444.92;;;4.53;56.98
61357;BME280;47227;46.752;23.576;2023-04-28T22:25:56;96444.94;;;4.49;55.33
61357;BME280;47227;46.752;23.576;2023-04-28T22:28:25;96441.88;;;4.47;54.80
61357;BME280;47227;46.752;23.576;2023-04-28T22:30:51;96441.44;;;4.45;54.83